Terminal Aerodrome Forecast
Issued by NWS Louisville, KY

Home | Current Version | Previous Version | Text Only | Print | Product List | Glossary On
Versions: 1 2 3 4 5 6 7 8 9 10 11 12
566
FTUS43 KLMK 201723
TAFBWG
TAF
KBWG 201723Z 2018/2118 27007KT P6SM FEW060 FEW250
     FM211100 19004KT P6SM FEW070 SCT200=

USA.gov is the U.S. government's official web portal to all federal, state and local government web resources and services.